sensor_id;sensor_type;location;lat;lon;timestamp;P1;durP1;ratioP1;P2;durP2;ratioP2
5912;SDS011;2982;42.684;23.356;2022-12-18T00:00:44;6.17;;;5.67;;
5912;SDS011;2982;42.684;23.356;2022-12-18T00:03:10;6.47;;;5.90;;
5912;SDS011;2982;42.684;23.356;2022-12-18T00:05:35;5.87;;;5.37;;
5912;SDS011;2982;42.684;23.356;2022-12-18T00:08:01;5.97;;;5.47;;
5912;SDS011;2982;42.684;23.356;2022-12-18T00:10:27;6.40;;;5.80;;
5912;SDS011;2982;42.684;23.356;2022-12-18T00:12:53;5.30;;;4.80;;
5912;SDS011;2982;42.684;23.356;2022-12-18T00:15:18;6.90;;;5.50;;
5912;SDS011;2982;42.684;23.356;2022-12-18T00:17:44;6.30;;;5.47;;
5912;SDS011;2982;42.684;23.356;2022-12-18T00:20:09;6.80;;;6.20;;
5912;SDS011;2982;42.684;23.356;2022-12-18T00:22:35;6.60;;;5.97;;
5912;SDS011;2982;42.684;23.356;2022-12-18T00:25:00;7.43;;;6.83;;
5912;SDS011;2982;42.684;23.356;2022-12-18T00:27:25;6.13;;;5.60;;
5912;SDS011;2982;42.684;23.356;2022-12-18T00:29:51;7.47;;;6.77;;
5912;SDS011;2982;42.684;23.356;2022-12-18T00:32:16;7.00;;;6.40;;
5912;SDS011;2982;42.684;23.356;2022-12-18T00:34:41;8.10;;;7.33;;
5912;SDS011;2982;42.684;23.356;2022-12-18T00:37:07;7.57;;;6.07;;
5912;SDS011;2982;42.684;23.356;2022-12-18T00:39:32;6.83;;;6.23;;
5912;SDS011;2982;42.684;23.356;2022-12-18T00:41:57;6.67;;;6.03;;
5912;SDS011;2982;42.684;23.356;2022-12-18T00:44:22;6.07;;;5.57;;
5912;SDS011;2982;42.684;23.356;2022-12-18T00:46:48;6.33;;;5.73;;
5912;SDS011;2982;42.684;23.356;2022-12-18T00:49:14;5.77;;;5.37;;
5912;SDS011;2982;42.684;23.356;2022-12-18T00:51:40;6.57;;;5.50;;
5912;SDS011;2982;42.684;23.356;2022-12-18T00:54:05;6.43;;;5.67;;
5912;SDS011;2982;42.684;23.356;2022-12-18T00:56:31;5.73;;;5.23;;
5912;SDS011;2982;42.684;23.356;2022-12-18T00:58:56;5.27;;;4.87;;
5912;SDS011;2982;42.684;23.356;2022-12-18T01:01:22;6.63;;;6.03;;
5912;SDS011;2982;42.684;23.356;2022-12-18T01:03:47;5.97;;;5.50;;
5912;SDS011;2982;42.684;23.356;2022-12-18T01:06:13;4.83;;;4.43;;
5912;SDS011;2982;42.684;23.356;2022-12-18T01:08:39;6.17;;;5.57;;
5912;SDS011;2982;42.684;23.356;2022-12-18T01:11:11;6.77;;;5.53;;
5912;SDS011;2982;42.684;23.356;2022-12-18T01:13:39;5.70;;;5.23;;
5912;SDS011;2982;42.684;23.356;2022-12-18T01:16:04;6.47;;;5.87;;
5912;SDS011;2982;42.684;23.356;2022-12-18T01:18:30;7.17;;;6.50;;
5912;SDS011;2982;42.684;23.356;2022-12-18T01:20:55;6.97;;;6.27;;
5912;SDS011;2982;42.684;23.356;2022-12-18T01:23:21;6.27;;;5.77;;
5912;SDS011;2982;42.684;23.356;2022-12-18T01:25:46;6.50;;;5.90;;
5912;SDS011;2982;42.684;23.356;2022-12-18T01:28:11;7.17;;;6.43;;
5912;SDS011;2982;42.684;23.356;2022-12-18T01:30:37;7.00;;;6.20;;
5912;SDS011;2982;42.684;23.356;2022-12-18T01:33:03;7.43;;;6.73;;
5912;SDS011;2982;42.684;23.356;2022-12-18T01:35:29;7.73;;;6.23;;
5912;SDS011;2982;42.684;23.356;2022-12-18T01:37:55;8.57;;;5.80;;
5912;SDS011;2982;42.684;23.356;2022-12-18T01:40:20;7.27;;;6.57;;
5912;SDS011;2982;42.684;23.356;2022-12-18T01:42:49;7.60;;;6.87;;
5912;SDS011;2982;42.684;23.356;2022-12-18T01:47:51;6.07;;;5.63;;
5912;SDS011;2982;42.684;23.356;2022-12-18T01:50:33;5.83;;;5.20;;
5912;SDS011;2982;42.684;23.356;2022-12-18T01:53:06;8.13;;;6.90;;
5912;SDS011;2982;42.684;23.356;2022-12-18T01:55:50;6.77;;;6.03;;
5912;SDS011;2982;42.684;23.356;2022-12-18T01:58:18;6.17;;;5.57;;
5912;SDS011;2982;42.684;23.356;2022-12-18T02:00:48;7.93;;;6.97;;
5912;SDS011;2982;42.684;23.356;2022-12-18T02:03:13;8.37;;;6.33;;
5912;SDS011;2982;42.684;23.356;2022-12-18T02:05:41;8.20;;;7.40;;
5912;SDS011;2982;42.684;23.356;2022-12-18T02:13:38;9.20;;;5.93;;
5912;SDS011;2982;42.684;23.356;2022-12-18T02:18:48;6.57;;;5.90;;
5912;SDS011;2982;42.684;23.356;2022-12-18T02:21:31;6.63;;;5.47;;
5912;SDS011;2982;42.684;23.356;2022-12-18T02:24:13;6.30;;;5.20;;
5912;SDS011;2982;42.684;23.356;2022-12-18T02:26:47;6.67;;;5.63;;
5912;SDS011;2982;42.684;23.356;2022-12-18T02:29:22;7.10;;;5.83;;
5912;SDS011;2982;42.684;23.356;2022-12-18T02:31:54;6.47;;;5.97;;
5912;SDS011;2982;42.684;23.356;2022-12-18T02:34:24;7.23;;;5.63;;
5912;SDS011;2982;42.684;23.356;2022-12-18T02:36:53;7.17;;;5.17;;
5912;SDS011;2982;42.684;23.356;2022-12-18T02:39:21;5.20;;;4.70;;
5912;SDS011;2982;42.684;23.356;2022-12-18T02:41:48;6.27;;;5.67;;
5912;SDS011;2982;42.684;23.356;2022-12-18T02:44:15;5.83;;;5.23;;
5912;SDS011;2982;42.684;23.356;2022-12-18T02:46:41;6.73;;;6.03;;
5912;SDS011;2982;42.684;23.356;2022-12-18T02:49:12;5.93;;;5.40;;
5912;SDS011;2982;42.684;23.356;2022-12-18T02:51:53;6.30;;;5.70;;
5912;SDS011;2982;42.684;23.356;2022-12-18T02:54:30;9.53;;;7.03;;
5912;SDS011;2982;42.684;23.356;2022-12-18T02:56:56;8.97;;;6.73;;
5912;SDS011;2982;42.684;23.356;2022-12-18T02:59:30;7.23;;;6.53;;
5912;SDS011;2982;42.684;23.356;2022-12-18T03:04:45;8.93;;;7.33;;
5912;SDS011;2982;42.684;23.356;2022-12-18T03:07:15;7.60;;;6.83;;
5912;SDS011;2982;42.684;23.356;2022-12-18T03:09:46;10.23;;;6.53;;
5912;SDS011;2982;42.684;23.356;2022-12-18T03:12:17;6.63;;;6.03;;
5912;SDS011;2982;42.684;23.356;2022-12-18T03:14:48;6.90;;;5.77;;
5912;SDS011;2982;42.684;23.356;2022-12-18T03:17:20;8.43;;;6.80;;
5912;SDS011;2982;42.684;23.356;2022-12-18T03:19:50;7.23;;;6.53;;
5912;SDS011;2982;42.684;23.356;2022-12-18T03:22:17;7.23;;;6.63;;
5912;SDS011;2982;42.684;23.356;2022-12-18T03:24:45;8.03;;;5.70;;
5912;SDS011;2982;42.684;23.356;2022-12-18T03:27:13;5.43;;;4.93;;
5912;SDS011;2982;42.684;23.356;2022-12-18T03:29:43;7.20;;;6.57;;
5912;SDS011;2982;42.684;23.356;2022-12-18T03:32:15;6.57;;;6.00;;
5912;SDS011;2982;42.684;23.356;2022-12-18T03:34:57;7.40;;;6.70;;
5912;SDS011;2982;42.684;23.356;2022-12-18T03:37:25;7.77;;;6.50;;
5912;SDS011;2982;42.684;23.356;2022-12-18T03:39:50;7.50;;;6.83;;
5912;SDS011;2982;42.684;23.356;2022-12-18T03:47:28;7.43;;;6.47;;
5912;SDS011;2982;42.684;23.356;2022-12-18T03:50:19;5.90;;;5.33;;
5912;SDS011;2982;42.684;23.356;2022-12-18T03:55:30;6.60;;;6.00;;
5912;SDS011;2982;42.684;23.356;2022-12-18T03:57:59;8.97;;;6.67;;
5912;SDS011;2982;42.684;23.356;2022-12-18T04:00:28;7.30;;;6.67;;
5912;SDS011;2982;42.684;23.356;2022-12-18T04:02:55;7.00;;;5.27;;
5912;SDS011;2982;42.684;23.356;2022-12-18T04:05:22;6.70;;;6.03;;
5912;SDS011;2982;42.684;23.356;2022-12-18T04:07:49;6.20;;;5.57;;
5912;SDS011;2982;42.684;23.356;2022-12-18T04:10:16;6.53;;;4.70;;
5912;SDS011;2982;42.684;23.356;2022-12-18T04:12:42;5.47;;;4.97;;
5912;SDS011;2982;42.684;23.356;2022-12-18T04:15:08;5.47;;;4.97;;
5912;SDS011;2982;42.684;23.356;2022-12-18T04:17:34;6.50;;;5.90;;
5912;SDS011;2982;42.684;23.356;2022-12-18T04:19:59;7.57;;;6.90;;
5912;SDS011;2982;42.684;23.356;2022-12-18T04:22:25;5.33;;;4.83;;
5912;SDS011;2982;42.684;23.356;2022-12-18T04:24:50;8.20;;;7.30;;
5912;SDS011;2982;42.684;23.356;2022-12-18T04:27:15;6.50;;;5.90;;
5912;SDS011;2982;42.684;23.356;2022-12-18T04:29:40;9.00;;;7.17;;
5912;SDS011;2982;42.684;23.356;2022-12-18T04:32:06;9.23;;;6.90;;
5912;SDS011;2982;42.684;23.356;2022-12-18T04:34:32;7.77;;;6.53;;
5912;SDS011;2982;42.684;23.356;2022-12-18T04:36:57;9.50;;;7.50;;
5912;SDS011;2982;42.684;23.356;2022-12-18T04:39:24;10.87;;;7.90;;
5912;SDS011;2982;42.684;23.356;2022-12-18T04:41:49;9.90;;;8.73;;
5912;SDS011;2982;42.684;23.356;2022-12-18T04:44:14;8.80;;;7.47;;
5912;SDS011;2982;42.684;23.356;2022-12-18T04:46:40;10.33;;;7.43;;
5912;SDS011;2982;42.684;23.356;2022-12-18T04:49:05;8.10;;;6.20;;
5912;SDS011;2982;42.684;23.356;2022-12-18T04:51:30;8.73;;;7.27;;
5912;SDS011;2982;42.684;23.356;2022-12-18T04:53:55;9.43;;;7.37;;
5912;SDS011;2982;42.684;23.356;2022-12-18T04:56:21;8.83;;;7.40;;
5912;SDS011;2982;42.684;23.356;2022-12-18T04:58:47;7.97;;;6.67;;
5912;SDS011;2982;42.684;23.356;2022-12-18T05:01:13;8.43;;;6.60;;
5912;SDS011;2982;42.684;23.356;2022-12-18T05:03:40;11.27;;;7.80;;
5912;SDS011;2982;42.684;23.356;2022-12-18T05:06:06;12.17;;;8.97;;
5912;SDS011;2982;42.684;23.356;2022-12-18T05:08:32;10.37;;;9.10;;
5912;SDS011;2982;42.684;23.356;2022-12-18T05:11:01;9.17;;;6.87;;
5912;SDS011;2982;42.684;23.356;2022-12-18T05:13:28;9.83;;;8.17;;
5912;SDS011;2982;42.684;23.356;2022-12-18T05:15:54;9.53;;;7.13;;
5912;SDS011;2982;42.684;23.356;2022-12-18T05:18:20;10.70;;;8.33;;
5912;SDS011;2982;42.684;23.356;2022-12-18T05:20:46;14.17;;;9.00;;
5912;SDS011;2982;42.684;23.356;2022-12-18T05:23:11;12.87;;;9.70;;
5912;SDS011;2982;42.684;23.356;2022-12-18T05:25:36;11.77;;;8.03;;
5912;SDS011;2982;42.684;23.356;2022-12-18T05:28:01;14.53;;;7.60;;
5912;SDS011;2982;42.684;23.356;2022-12-18T05:30:27;12.53;;;10.13;;
5912;SDS011;2982;42.684;23.356;2022-12-18T05:32:52;13.80;;;10.43;;
5912;SDS011;2982;42.684;23.356;2022-12-18T05:35:18;12.90;;;9.73;;
5912;SDS011;2982;42.684;23.356;2022-12-18T05:37:44;14.37;;;9.70;;
5912;SDS011;2982;42.684;23.356;2022-12-18T05:40:10;10.57;;;8.53;;
5912;SDS011;2982;42.684;23.356;2022-12-18T05:42:36;14.27;;;10.07;;
5912;SDS011;2982;42.684;23.356;2022-12-18T05:45:01;10.73;;;8.03;;
5912;SDS011;2982;42.684;23.356;2022-12-18T05:47:27;14.37;;;9.93;;
5912;SDS011;2982;42.684;23.356;2022-12-18T05:49:52;12.30;;;9.00;;
5912;SDS011;2982;42.684;23.356;2022-12-18T05:52:17;9.73;;;7.67;;
5912;SDS011;2982;42.684;23.356;2022-12-18T05:54:43;16.67;;;9.57;;
5912;SDS011;2982;42.684;23.356;2022-12-18T05:57:08;11.50;;;8.87;;
5912;SDS011;2982;42.684;23.356;2022-12-18T05:59:33;15.20;;;9.73;;
5912;SDS011;2982;42.684;23.356;2022-12-18T06:01:59;12.27;;;8.93;;
5912;SDS011;2982;42.684;23.356;2022-12-18T06:04:24;11.40;;;7.83;;
5912;SDS011;2982;42.684;23.356;2022-12-18T06:06:52;13.80;;;9.97;;
5912;SDS011;2982;42.684;23.356;2022-12-18T06:09:17;11.57;;;9.50;;
5912;SDS011;2982;42.684;23.356;2022-12-18T06:11:42;16.13;;;10.03;;
5912;SDS011;2982;42.684;23.356;2022-12-18T06:14:08;13.50;;;9.77;;
5912;SDS011;2982;42.684;23.356;2022-12-18T06:16:34;15.47;;;10.80;;
5912;SDS011;2982;42.684;23.356;2022-12-18T06:19:00;12.53;;;9.77;;
5912;SDS011;2982;42.684;23.356;2022-12-18T06:21:27;12.03;;;7.93;;
5912;SDS011;2982;42.684;23.356;2022-12-18T06:23:53;11.87;;;9.83;;
5912;SDS011;2982;42.684;23.356;2022-12-18T06:26:19;12.77;;;9.07;;
5912;SDS011;2982;42.684;23.356;2022-12-18T06:28:44;13.23;;;10.37;;
5912;SDS011;2982;42.684;23.356;2022-12-18T06:31:10;9.47;;;7.50;;
5912;SDS011;2982;42.684;23.356;2022-12-18T06:33:36;11.00;;;8.33;;
5912;SDS011;2982;42.684;23.356;2022-12-18T06:36:03;15.53;;;9.63;;
5912;SDS011;2982;42.684;23.356;2022-12-18T06:38:33;14.03;;;9.90;;
5912;SDS011;2982;42.684;23.356;2022-12-18T06:40:59;11.33;;;7.80;;
5912;SDS011;2982;42.684;23.356;2022-12-18T06:43:24;14.23;;;9.60;;
5912;SDS011;2982;42.684;23.356;2022-12-18T06:45:49;14.10;;;9.87;;
5912;SDS011;2982;42.684;23.356;2022-12-18T06:48:15;13.33;;;10.10;;
5912;SDS011;2982;42.684;23.356;2022-12-18T06:50:43;13.37;;;9.60;;
5912;SDS011;2982;42.684;23.356;2022-12-18T06:53:08;11.40;;;8.70;;
5912;SDS011;2982;42.684;23.356;2022-12-18T06:55:33;13.80;;;9.47;;
5912;SDS011;2982;42.684;23.356;2022-12-18T06:57:59;12.60;;;8.57;;
5912;SDS011;2982;42.684;23.356;2022-12-18T07:00:24;15.00;;;9.97;;
5912;SDS011;2982;42.684;23.356;2022-12-18T07:02:49;20.33;;;10.10;;
5912;SDS011;2982;42.684;23.356;2022-12-18T07:05:15;12.57;;;9.43;;
5912;SDS011;2982;42.684;23.356;2022-12-18T07:07:40;10.53;;;7.53;;
5912;SDS011;2982;42.684;23.356;2022-12-18T07:10:05;12.27;;;9.03;;
5912;SDS011;2982;42.684;23.356;2022-12-18T07:12:31;14.53;;;10.20;;
5912;SDS011;2982;42.684;23.356;2022-12-18T07:14:56;12.07;;;10.47;;
5912;SDS011;2982;42.684;23.356;2022-12-18T07:17:22;11.87;;;9.83;;
5912;SDS011;2982;42.684;23.356;2022-12-18T07:19:47;12.53;;;8.50;;
5912;SDS011;2982;42.684;23.356;2022-12-18T07:22:12;11.73;;;9.43;;
5912;SDS011;2982;42.684;23.356;2022-12-18T07:24:38;8.77;;;7.83;;
5912;SDS011;2982;42.684;23.356;2022-12-18T07:27:03;12.17;;;8.33;;
5912;SDS011;2982;42.684;23.356;2022-12-18T07:29:28;14.43;;;9.67;;
5912;SDS011;2982;42.684;23.356;2022-12-18T07:31:54;13.70;;;10.03;;
5912;SDS011;2982;42.684;23.356;2022-12-18T07:34:19;14.77;;;10.23;;
5912;SDS011;2982;42.684;23.356;2022-12-18T07:36:44;19.67;;;9.87;;
5912;SDS011;2982;42.684;23.356;2022-12-18T07:39:12;16.37;;;10.50;;
5912;SDS011;2982;42.684;23.356;2022-12-18T07:41:38;14.57;;;9.83;;
5912;SDS011;2982;42.684;23.356;2022-12-18T07:44:04;18.07;;;11.60;;
5912;SDS011;2982;42.684;23.356;2022-12-18T07:46:29;18.57;;;11.70;;
5912;SDS011;2982;42.684;23.356;2022-12-18T07:48:54;15.97;;;11.70;;
5912;SDS011;2982;42.684;23.356;2022-12-18T07:51:19;16.23;;;11.97;;
5912;SDS011;2982;42.684;23.356;2022-12-18T07:53:45;19.40;;;11.93;;
5912;SDS011;2982;42.684;23.356;2022-12-18T07:56:10;22.27;;;10.87;;
5912;SDS011;2982;42.684;23.356;2022-12-18T07:58:37;14.27;;;9.80;;
5912;SDS011;2982;42.684;23.356;2022-12-18T08:01:03;25.00;;;13.53;;
5912;SDS011;2982;42.684;23.356;2022-12-18T08:03:29;17.00;;;12.10;;
5912;SDS011;2982;42.684;23.356;2022-12-18T08:05:57;12.43;;;9.60;;
5912;SDS011;2982;42.684;23.356;2022-12-18T08:08:24;20.17;;;11.80;;
5912;SDS011;2982;42.684;23.356;2022-12-18T08:10:49;19.33;;;13.47;;
5912;SDS011;2982;42.684;23.356;2022-12-18T08:13:14;17.27;;;10.73;;
5912;SDS011;2982;42.684;23.356;2022-12-18T08:15:39;16.93;;;10.70;;
5912;SDS011;2982;42.684;23.356;2022-12-18T08:18:05;19.73;;;12.83;;
5912;SDS011;2982;42.684;23.356;2022-12-18T08:20:30;20.53;;;12.40;;
5912;SDS011;2982;42.684;23.356;2022-12-18T08:22:55;17.90;;;12.33;;
5912;SDS011;2982;42.684;23.356;2022-12-18T08:25:21;20.57;;;12.27;;
5912;SDS011;2982;42.684;23.356;2022-12-18T08:27:46;19.50;;;12.93;;
5912;SDS011;2982;42.684;23.356;2022-12-18T08:30:11;16.77;;;10.77;;
5912;SDS011;2982;42.684;23.356;2022-12-18T08:32:37;19.27;;;12.37;;
5912;SDS011;2982;42.684;23.356;2022-12-18T08:35:02;22.87;;;13.37;;
5912;SDS011;2982;42.684;23.356;2022-12-18T08:37:28;32.07;;;13.90;;
5912;SDS011;2982;42.684;23.356;2022-12-18T08:39:53;18.97;;;11.73;;
5912;SDS011;2982;42.684;23.356;2022-12-18T08:42:18;15.87;;;11.47;;
5912;SDS011;2982;42.684;23.356;2022-12-18T08:44:43;18.23;;;12.07;;
5912;SDS011;2982;42.684;23.356;2022-12-18T08:47:09;21.23;;;14.23;;
5912;SDS011;2982;42.684;23.356;2022-12-18T08:49:34;20.13;;;12.63;;
5912;SDS011;2982;42.684;23.356;2022-12-18T08:52:00;22.27;;;14.67;;
5912;SDS011;2982;42.684;23.356;2022-12-18T08:54:26;19.40;;;13.43;;
5912;SDS011;2982;42.684;23.356;2022-12-18T08:56:51;18.50;;;11.73;;
5912;SDS011;2982;42.684;23.356;2022-12-18T08:59:17;18.97;;;13.63;;
5912;SDS011;2982;42.684;23.356;2022-12-18T09:01:43;15.93;;;11.97;;
5912;SDS011;2982;42.684;23.356;2022-12-18T09:04:09;15.23;;;10.33;;
5912;SDS011;2982;42.684;23.356;2022-12-18T09:06:35;17.30;;;10.57;;
5912;SDS011;2982;42.684;23.356;2022-12-18T09:09:02;17.17;;;11.40;;
5912;SDS011;2982;42.684;23.356;2022-12-18T09:11:28;15.57;;;10.37;;
5912;SDS011;2982;42.684;23.356;2022-12-18T09:13:54;15.73;;;10.40;;
5912;SDS011;2982;42.684;23.356;2022-12-18T09:16:20;15.70;;;10.63;;
5912;SDS011;2982;42.684;23.356;2022-12-18T09:18:47;15.83;;;10.43;;
5912;SDS011;2982;42.684;23.356;2022-12-18T09:21:16;14.63;;;11.13;;
5912;SDS011;2982;42.684;23.356;2022-12-18T09:23:43;16.70;;;10.00;;
5912;SDS011;2982;42.684;23.356;2022-12-18T09:26:13;16.07;;;10.60;;
5912;SDS011;2982;42.684;23.356;2022-12-18T09:28:39;18.27;;;11.17;;
5912;SDS011;2982;42.684;23.356;2022-12-18T09:31:05;15.63;;;9.47;;
5912;SDS011;2982;42.684;23.356;2022-12-18T09:33:32;14.07;;;10.43;;
5912;SDS011;2982;42.684;23.356;2022-12-18T09:35:57;18.20;;;11.27;;
5912;SDS011;2982;42.684;23.356;2022-12-18T09:38:24;17.10;;;10.63;;
5912;SDS011;2982;42.684;23.356;2022-12-18T09:40:51;26.63;;;11.00;;
5912;SDS011;2982;42.684;23.356;2022-12-18T09:43:19;14.93;;;11.00;;
5912;SDS011;2982;42.684;23.356;2022-12-18T09:45:52;12.97;;;9.33;;
5912;SDS011;2982;42.684;23.356;2022-12-18T09:48:23;18.17;;;10.93;;
5912;SDS011;2982;42.684;23.356;2022-12-18T09:50:54;14.87;;;10.20;;
5912;SDS011;2982;42.684;23.356;2022-12-18T09:53:24;13.60;;;8.43;;
5912;SDS011;2982;42.684;23.356;2022-12-18T09:55:55;16.50;;;11.33;;
5912;SDS011;2982;42.684;23.356;2022-12-18T09:58:30;9.63;;;8.03;;
5912;SDS011;2982;42.684;23.356;2022-12-18T10:01:18;18.37;;;11.13;;
5912;SDS011;2982;42.684;23.356;2022-12-18T10:03:47;18.67;;;11.30;;
5912;SDS011;2982;42.684;23.356;2022-12-18T10:25:50;12.37;;;7.73;;
5912;SDS011;2982;42.684;23.356;2022-12-18T10:28:20;12.87;;;8.77;;
5912;SDS011;2982;42.684;23.356;2022-12-18T10:30:48;12.07;;;10.03;;
5912;SDS011;2982;42.684;23.356;2022-12-18T10:33:15;17.67;;;10.63;;
5912;SDS011;2982;42.684;23.356;2022-12-18T10:35:42;13.63;;;8.03;;
5912;SDS011;2982;42.684;23.356;2022-12-18T10:40:51;16.63;;;10.60;;
5912;SDS011;2982;42.684;23.356;2022-12-18T10:43:36;11.80;;;8.83;;
5912;SDS011;2982;42.684;23.356;2022-12-18T10:51:06;16.33;;;11.10;;
5912;SDS011;2982;42.684;23.356;2022-12-18T10:53:33;13.53;;;9.97;;
5912;SDS011;2982;42.684;23.356;2022-12-18T10:56:00;17.80;;;11.00;;
5912;SDS011;2982;42.684;23.356;2022-12-18T10:58:32;17.23;;;11.80;;
5912;SDS011;2982;42.684;23.356;2022-12-18T11:08:39;15.50;;;8.47;;
5912;SDS011;2982;42.684;23.356;2022-12-18T11:11:17;17.20;;;12.47;;
5912;SDS011;2982;42.684;23.356;2022-12-18T11:16:33;19.60;;;11.30;;
5912;SDS011;2982;42.684;23.356;2022-12-18T11:19:13;12.83;;;8.93;;
5912;SDS011;2982;42.684;23.356;2022-12-18T11:21:45;14.13;;;9.57;;
5912;SDS011;2982;42.684;23.356;2022-12-18T11:24:49;12.57;;;8.83;;
5912;SDS011;2982;42.684;23.356;2022-12-18T11:27:04;14.90;;;10.10;;
5912;SDS011;2982;42.684;23.356;2022-12-18T11:29:34;15.00;;;9.73;;
5912;SDS011;2982;42.684;23.356;2022-12-18T11:34:39;17.97;;;11.13;;
5912;SDS011;2982;42.684;23.356;2022-12-18T11:37:08;18.77;;;11.97;;
5912;SDS011;2982;42.684;23.356;2022-12-18T11:39:37;16.57;;;11.13;;
5912;SDS011;2982;42.684;23.356;2022-12-18T11:42:17;17.27;;;12.77;;
5912;SDS011;2982;42.684;23.356;2022-12-18T11:48:02;15.60;;;10.80;;
5912;SDS011;2982;42.684;23.356;2022-12-18T11:50:53;17.47;;;10.10;;
5912;SDS011;2982;42.684;23.356;2022-12-18T11:53:18;16.20;;;10.40;;
5912;SDS011;2982;42.684;23.356;2022-12-18T12:01:45;17.27;;;11.27;;
5912;SDS011;2982;42.684;23.356;2022-12-18T12:07:12;17.27;;;11.57;;
5912;SDS011;2982;42.684;23.356;2022-12-18T12:09:46;19.20;;;12.40;;
5912;SDS011;2982;42.684;23.356;2022-12-18T12:17:38;18.50;;;11.97;;
5912;SDS011;2982;42.684;23.356;2022-12-18T12:23:01;13.93;;;10.70;;
5912;SDS011;2982;42.684;23.356;2022-12-18T12:25:49;17.77;;;11.37;;
5912;SDS011;2982;42.684;23.356;2022-12-18T12:39:35;17.67;;;11.50;;
5912;SDS011;2982;42.684;23.356;2022-12-18T12:42:08;15.27;;;10.97;;
5912;SDS011;2982;42.684;23.356;2022-12-18T12:44:41;17.97;;;12.30;;
5912;SDS011;2982;42.684;23.356;2022-12-18T12:47:13;19.27;;;13.00;;
5912;SDS011;2982;42.684;23.356;2022-12-18T12:49:46;17.73;;;12.23;;
5912;SDS011;2982;42.684;23.356;2022-12-18T12:52:14;17.67;;;10.77;;
5912;SDS011;2982;42.684;23.356;2022-12-18T12:54:41;17.93;;;10.73;;
5912;SDS011;2982;42.684;23.356;2022-12-18T13:00:07;20.57;;;12.20;;
5912;SDS011;2982;42.684;23.356;2022-12-18T13:02:39;18.87;;;11.87;;
5912;SDS011;2982;42.684;23.356;2022-12-18T13:07:57;17.13;;;11.27;;
5912;SDS011;2982;42.684;23.356;2022-12-18T13:10:38;18.13;;;12.00;;
5912;SDS011;2982;42.684;23.356;2022-12-18T13:13:06;16.77;;;10.57;;
5912;SDS011;2982;42.684;23.356;2022-12-18T13:15:34;16.17;;;11.67;;
5912;SDS011;2982;42.684;23.356;2022-12-18T13:18:37;15.60;;;10.73;;
5912;SDS011;2982;42.684;23.356;2022-12-18T13:25:53;17.13;;;9.13;;
5912;SDS011;2982;42.684;23.356;2022-12-18T13:31:06;19.20;;;12.00;;
5912;SDS011;2982;42.684;23.356;2022-12-18T13:33:36;16.63;;;10.70;;
5912;SDS011;2982;42.684;23.356;2022-12-18T13:36:26;15.63;;;10.87;;
5912;SDS011;2982;42.684;23.356;2022-12-18T13:39:21;15.40;;;11.57;;
5912;SDS011;2982;42.684;23.356;2022-12-18T13:41:49;19.77;;;12.03;;
5912;SDS011;2982;42.684;23.356;2022-12-18T13:46:55;20.60;;;13.13;;
5912;SDS011;2982;42.684;23.356;2022-12-18T13:49:23;19.33;;;13.00;;
5912;SDS011;2982;42.684;23.356;2022-12-18T13:54:52;19.93;;;12.73;;
5912;SDS011;2982;42.684;23.356;2022-12-18T13:57:30;19.13;;;12.53;;
5912;SDS011;2982;42.684;23.356;2022-12-18T13:59:57;19.47;;;11.77;;
5912;SDS011;2982;42.684;23.356;2022-12-18T14:02:26;15.20;;;10.80;;
5912;SDS011;2982;42.684;23.356;2022-12-18T14:04:53;19.37;;;11.63;;
5912;SDS011;2982;42.684;23.356;2022-12-18T14:07:25;17.23;;;10.87;;
5912;SDS011;2982;42.684;23.356;2022-12-18T14:09:58;17.00;;;10.70;;
5912;SDS011;2982;42.684;23.356;2022-12-18T14:12:31;18.83;;;11.10;;
5912;SDS011;2982;42.684;23.356;2022-12-18T14:15:01;16.30;;;10.43;;
5912;SDS011;2982;42.684;23.356;2022-12-18T14:17:27;18.07;;;11.57;;
5912;SDS011;2982;42.684;23.356;2022-12-18T14:19:56;19.97;;;10.87;;
5912;SDS011;2982;42.684;23.356;2022-12-18T14:22:25;16.43;;;10.60;;
5912;SDS011;2982;42.684;23.356;2022-12-18T14:25:04;15.57;;;9.67;;
5912;SDS011;2982;42.684;23.356;2022-12-18T14:27:42;14.30;;;10.10;;
5912;SDS011;2982;42.684;23.356;2022-12-18T14:30:23;12.87;;;9.83;;
5912;SDS011;2982;42.684;23.356;2022-12-18T14:35:43;14.30;;;9.47;;
5912;SDS011;2982;42.684;23.356;2022-12-18T14:38:28;13.97;;;9.40;;
5912;SDS011;2982;42.684;23.356;2022-12-18T14:40:59;15.73;;;10.53;;
5912;SDS011;2982;42.684;23.356;2022-12-18T14:43:35;15.53;;;10.33;;
5912;SDS011;2982;42.684;23.356;2022-12-18T14:46:03;15.13;;;9.30;;
5912;SDS011;2982;42.684;23.356;2022-12-18T14:48:40;19.03;;;9.27;;
5912;SDS011;2982;42.684;23.356;2022-12-18T14:53:39;15.70;;;10.23;;
5912;SDS011;2982;42.684;23.356;2022-12-18T14:56:26;11.33;;;9.03;;
5912;SDS011;2982;42.684;23.356;2022-12-18T15:03:54;14.07;;;9.53;;
5912;SDS011;2982;42.684;23.356;2022-12-18T15:09:03;18.47;;;10.50;;
5912;SDS011;2982;42.684;23.356;2022-12-18T15:11:46;15.50;;;10.60;;
5912;SDS011;2982;42.684;23.356;2022-12-18T15:14:22;12.50;;;8.20;;
5912;SDS011;2982;42.684;23.356;2022-12-18T15:17:03;9.43;;;8.13;;
5912;SDS011;2982;42.684;23.356;2022-12-18T15:22:48;12.20;;;8.93;;
5912;SDS011;2982;42.684;23.356;2022-12-18T15:25:47;10.30;;;7.13;;
5912;SDS011;2982;42.684;23.356;2022-12-18T15:28:15;9.97;;;8.50;;
5912;SDS011;2982;42.684;23.356;2022-12-18T15:31:04;11.03;;;7.23;;
5912;SDS011;2982;42.684;23.356;2022-12-18T15:33:31;11.93;;;8.03;;
5912;SDS011;2982;42.684;23.356;2022-12-18T15:35:59;14.90;;;9.33;;
5912;SDS011;2982;42.684;23.356;2022-12-18T15:38:26;13.50;;;7.97;;
5912;SDS011;2982;42.684;23.356;2022-12-18T15:40:52;12.57;;;8.03;;
5912;SDS011;2982;42.684;23.356;2022-12-18T15:43:20;13.80;;;8.97;;
5912;SDS011;2982;42.684;23.356;2022-12-18T15:45:47;13.97;;;8.40;;
5912;SDS011;2982;42.684;23.356;2022-12-18T15:48:20;14.67;;;9.93;;
5912;SDS011;2982;42.684;23.356;2022-12-18T15:50:47;12.83;;;9.30;;
5912;SDS011;2982;42.684;23.356;2022-12-18T15:53:14;13.70;;;8.93;;
5912;SDS011;2982;42.684;23.356;2022-12-18T15:55:39;17.73;;;9.23;;
5912;SDS011;2982;42.684;23.356;2022-12-18T15:58:05;12.40;;;9.33;;
5912;SDS011;2982;42.684;23.356;2022-12-18T16:00:32;14.87;;;9.70;;
5912;SDS011;2982;42.684;23.356;2022-12-18T16:02:59;11.60;;;8.53;;
5912;SDS011;2982;42.684;23.356;2022-12-18T16:05:25;12.70;;;9.40;;
5912;SDS011;2982;42.684;23.356;2022-12-18T16:07:52;19.13;;;9.20;;
5912;SDS011;2982;42.684;23.356;2022-12-18T16:10:17;14.37;;;8.63;;
5912;SDS011;2982;42.684;23.356;2022-12-18T16:12:42;13.20;;;9.33;;
5912;SDS011;2982;42.684;23.356;2022-12-18T16:15:10;18.00;;;9.93;;
5912;SDS011;2982;42.684;23.356;2022-12-18T16:17:37;9.70;;;6.23;;
5912;SDS011;2982;42.684;23.356;2022-12-18T16:20:02;13.90;;;10.00;;
5912;SDS011;2982;42.684;23.356;2022-12-18T16:22:29;17.73;;;10.37;;
5912;SDS011;2982;42.684;23.356;2022-12-18T16:24:55;11.73;;;9.87;;
5912;SDS011;2982;42.684;23.356;2022-12-18T16:27:22;17.33;;;11.10;;
5912;SDS011;2982;42.684;23.356;2022-12-18T16:29:48;15.73;;;10.17;;
5912;SDS011;2982;42.684;23.356;2022-12-18T16:32:18;14.77;;;9.17;;
5912;SDS011;2982;42.684;23.356;2022-12-18T16:34:45;16.10;;;10.40;;
5912;SDS011;2982;42.684;23.356;2022-12-18T16:37:11;16.17;;;11.47;;
5912;SDS011;2982;42.684;23.356;2022-12-18T16:39:38;16.90;;;11.13;;
5912;SDS011;2982;42.684;23.356;2022-12-18T16:42:15;16.70;;;9.93;;
5912;SDS011;2982;42.684;23.356;2022-12-18T16:44:42;19.33;;;12.03;;
5912;SDS011;2982;42.684;23.356;2022-12-18T16:47:08;19.40;;;11.27;;
5912;SDS011;2982;42.684;23.356;2022-12-18T16:49:34;17.77;;;10.43;;
5912;SDS011;2982;42.684;23.356;2022-12-18T16:52:03;18.87;;;11.47;;
5912;SDS011;2982;42.684;23.356;2022-12-18T16:54:29;15.07;;;9.93;;
5912;SDS011;2982;42.684;23.356;2022-12-18T16:56:54;17.93;;;12.23;;
5912;SDS011;2982;42.684;23.356;2022-12-18T16:59:20;18.30;;;10.00;;
5912;SDS011;2982;42.684;23.356;2022-12-18T17:01:46;16.80;;;11.87;;
5912;SDS011;2982;42.684;23.356;2022-12-18T17:04:11;16.57;;;11.73;;